Eira — OJJP — position and weather

sailwx.info

Track history (hours):
 
Tides and Currents Weather Stations Pressure Air Temp Water Temp Dewpoint Dewpoint Depression Visibility Wind Speed Wind Dir Waves Ship Positions

Eira

Last reported at 2015-May-29 23:13 UTC. Time now 2015-May-30 00:26 UTC.
Position N 59°53' E 025°38'.

Length 157 m; draft 6.2 m.

Type: Cargo ship. MMSI: 230935000.

Date/timePositionNaut miles runAvg speedWind from/ knotsBaromVisibWave heightAir tempDewpointWater temp
2015-May-29 23:13N 59°53' E 025°38'810.0
2015-May-29 22:28N 59°55' E 025°24'19 8.0
2015-May-29 20:03N 60°10' E 024°59'1 0.1
2015-May-29 11:21N 60°11' E 024°58'0 0.0
2015-May-29 10:33N 60°11' E 024°58'0 0.0
2015-May-29 09:21N 60°11' E 024°58'0 0.0
2015-May-29 08:30N 60°11' E 024°58'0 0.0
2015-May-29 07:12N 60°11' E 024°58'0 0.0
2015-May-29 06:33N 60°11' E 024°58'0 0.0
2015-May-29 04:15N 60°11' E 024°58'0 0.0
2015-May-29 03:21N 60°11' E 024°58'4 5.3
2015-May-29 02:31N 60°06' E 024°59'26 8.6
2015-May-28 23:29N 59°56' E 025°46'910.3
2015-May-28 22:33N 59°58' E 026°04'1010.3
2015-May-28 21:34N 60°00' E 026°25'1010.2
2015-May-28 20:33N 60°01' E 026°45'11 9.9
2015-May-28 19:24N 60°01' E 027°08'910.6
2015-May-28 18:33N 60°06' E 027°23'  
2015-May-26 12:33N 60°09' E 027°40'1110.3
2015-May-26 11:30N 60°04' E 027°22'1010.4
2015-May-26 10:33N 59°59' E 027°05'1010.3
2015-May-26 09:33N 59°59' E 026°45'1010.5
2015-May-26 08:33N 59°57' E 026°24'1210.9
2015-May-26 07:29N 59°55' E 026°01'1010.9
2015-May-26 06:32N 59°52' E 025°41'1110.8
2015-May-26 05:33N 59°50' E 025°21'1110.7
2015-May-26 04:33N 59°47' E 025°00'1110.6
2015-May-26 03:33N 59°45' E 024°40'1010.5
2015-May-26 02:33N 59°43' E 024°19'1210.6
2015-May-26 01:25N 59°40' E 023°56'910.6
2015-May-26 00:33N 59°40' E 023°38'1210.4
2015-May-25 23:22N 59°39' E 023°14'1210.3
2015-May-25 22:13N 59°38' E 022°50'910.4
2015-May-25 21:21N 59°38' E 022°33'11 6.3
2015-May-25 19:33N 59°37' E 022°10'1010.0
2015-May-25 18:33N 59°34' E 021°52'1010.3
2015-May-25 17:33N 59°35' E 021°31'10 9.9
2015-May-25 16:33N 59°43' E 021°21'9 9.2
2015-May-25 15:33N 59°52' E 021°27'2 0.1
2015-May-24 13:24N 59°53' E 021°31'810.0
2015-May-24 12:33N 59°46' E 021°21'1211.6
2015-May-24 11:33N 59°36' E 021°30'1210.5
2015-May-24 10:27N 59°33' E 021°53'4511.4
2015-May-24 06:31N 59°40' E 023°20'1212.2
2015-May-24 05:32N 59°42' E 023°44'1212.3
2015-May-24 04:33N 59°45' E 024°07'1212.2
2015-May-24 03:33N 59°48' E 024°30'1211.9
2015-May-24 02:32N 59°50' E 024°54'1212.1
2015-May-24 01:34N 59°52' E 025°17'1212.2
2015-May-24 00:34N 59°55' E 025°41'1312.4
2015-May-23 23:32N 59°58' E 026°06'1212.2
2015-May-23 22:34N 60°01' E 026°29'1212.0
2015-May-23 21:34N 60°00' E 026°53'1211.6
2015-May-23 20:30N 60°03' E 027°16'  
Track history (hours):
 
Tides and Currents Weather Stations Pressure Air Temp Water Temp Dewpoint Dewpoint Depression Visibility Wind Speed Wind Dir Waves Ship Positions

Eira

Last reported at 2015-May-29 23:13 UTC. Time now 2015-May-30 00:26 UTC.
Position N 59°53' E 025°38'.

Length 157 m; draft 6.2 m.

Type: Cargo ship. MMSI: 230935000.

Date/timePositionNaut miles runAvg speedWind from/ knotsBaromVisibWave heightAir tempDewpointWater temp
2015-May-29 23:13N 59°53' E 025°38'810.0
2015-May-29 22:28N 59°55' E 025°24'19 8.0
2015-May-29 20:03N 60°10' E 024°59'1 0.1
2015-May-29 11:21N 60°11' E 024°58'0 0.0
2015-May-29 10:33N 60°11' E 024°58'0 0.0
2015-May-29 09:21N 60°11' E 024°58'0 0.0
2015-May-29 08:30N 60°11' E 024°58'0 0.0
2015-May-29 07:12N 60°11' E 024°58'0 0.0
2015-May-29 06:33N 60°11' E 024°58'0 0.0
2015-May-29 04:15N 60°11' E 024°58'0 0.0
2015-May-29 03:21N 60°11' E 024°58'4 5.3
2015-May-29 02:31N 60°06' E 024°59'26 8.6
2015-May-28 23:29N 59°56' E 025°46'910.3
2015-May-28 22:33N 59°58' E 026°04'1010.3
2015-May-28 21:34N 60°00' E 026°25'1010.2
2015-May-28 20:33N 60°01' E 026°45'11 9.9
2015-May-28 19:24N 60°01' E 027°08'910.6
2015-May-28 18:33N 60°06' E 027°23'  
2015-May-26 12:33N 60°09' E 027°40'1110.3
2015-May-26 11:30N 60°04' E 027°22'1010.4
2015-May-26 10:33N 59°59' E 027°05'1010.3
2015-May-26 09:33N 59°59' E 026°45'1010.5
2015-May-26 08:33N 59°57' E 026°24'1210.9
2015-May-26 07:29N 59°55' E 026°01'1010.9
2015-May-26 06:32N 59°52' E 025°41'1110.8
2015-May-26 05:33N 59°50' E 025°21'1110.7
2015-May-26 04:33N 59°47' E 025°00'1110.6
2015-May-26 03:33N 59°45' E 024°40'1010.5
2015-May-26 02:33N 59°43' E 024°19'1210.6
2015-May-26 01:25N 59°40' E 023°56'910.6
2015-May-26 00:33N 59°40' E 023°38'1210.4
2015-May-25 23:22N 59°39' E 023°14'1210.3
2015-May-25 22:13N 59°38' E 022°50'910.4
2015-May-25 21:21N 59°38' E 022°33'11 6.3
2015-May-25 19:33N 59°37' E 022°10'1010.0
2015-May-25 18:33N 59°34' E 021°52'1010.3
2015-May-25 17:33N 59°35' E 021°31'10 9.9
2015-May-25 16:33N 59°43' E 021°21'9 9.2
2015-May-25 15:33N 59°52' E 021°27'2 0.1
2015-May-24 13:24N 59°53' E 021°31'810.0
2015-May-24 12:33N 59°46' E 021°21'1211.6
2015-May-24 11:33N 59°36' E 021°30'1210.5
2015-May-24 10:27N 59°33' E 021°53'4511.4
2015-May-24 06:31N 59°40' E 023°20'1212.2
2015-May-24 05:32N 59°42' E 023°44'1212.3
2015-May-24 04:33N 59°45' E 024°07'1212.2
2015-May-24 03:33N 59°48' E 024°30'1211.9
2015-May-24 02:32N 59°50' E 024°54'1212.1
2015-May-24 01:34N 59°52' E 025°17'1212.2
2015-May-24 00:34N 59°55' E 025°41'1312.4
2015-May-23 23:32N 59°58' E 026°06'1212.2
2015-May-23 22:34N 60°01' E 026°29'1212.0
2015-May-23 21:34N 60°00' E 026°53'1211.6
2015-May-23 20:30N 60°03' E 027°16'  

Dump ship's entire track history